Map

Track Data

SID SEASON NUMBER BASIN SUBBASIN NAME ISO_TIME NATURE LAT LON WMO_WIND WMO_PRES WMO_AGENCY TRACK_TYPE DIST2LAND LANDFALL IFLAG USA_AGENCY USA_ATCF_ID USA_LAT USA_LON USA_RECORD USA_STATUS USA_WIND USA_PRES USA_SSHS USA_R34_NE USA_R34_SE USA_R34_SW USA_R34_NW USA_R50_NE USA_R50_SE USA_R50_SW USA_R50_NW USA_R64_NE USA_R64_SE USA_R64_SW USA_R64_NW USA_POCI USA_ROCI USA_RMW USA_EYE TOKYO_LAT TOKYO_LON TOKYO_GRADE TOKYO_WIND TOKYO_PRES TOKYO_R50_DIR TOKYO_R50_LONG TOKYO_R50_SHORT TOKYO_R30_DIR TOKYO_R30_LONG TOKYO_R30_SHORT TOKYO_LAND CMA_LAT CMA_LON CMA_CAT CMA_WIND CMA_PRES HKO_LAT HKO_LON HKO_CAT HKO_WIND HKO_PRES NEWDELHI_LAT NEWDELHI_LON NEWDELHI_GRADE NEWDELHI_WIND NEWDELHI_PRES NEWDELHI_CI NEWDELHI_DP NEWDELHI_POCI REUNION_LAT REUNION_LON REUNION_TYPE REUNION_WIND REUNION_PRES REUNION_TNUM REUNION_CI REUNION_RMW REUNION_R34_NE REUNION_R34_SE REUNION_R34_SW REUNION_R34_NW REUNION_R50_NE REUNION_R50_SE REUNION_R50_SW REUNION_R50_NW REUNION_R64_NE REUNION_R64_SE REUNION_R64_SW REUNION_R64_NW BOM_LAT BOM_LON BOM_TYPE BOM_WIND BOM_PRES BOM_TNUM BOM_CI BOM_RMW BOM_R34_NE BOM_R34_SE BOM_R34_SW BOM_R34_NW BOM_R50_NE BOM_R50_SE BOM_R50_SW BOM_R50_NW BOM_R64_NE BOM_R64_SE BOM_R64_SW BOM_R64_NW BOM_ROCI BOM_POCI BOM_EYE BOM_POS_METHOD BOM_PRES_METHOD NADI_LAT NADI_LON NADI_CAT NADI_WIND NADI_PRES WELLINGTON_LAT WELLINGTON_LON WELLINGTON_WIND WELLINGTON_PRES DS824_LAT DS824_LON DS824_STAGE DS824_WIND DS824_PRES TD9636_LAT TD9636_LON TD9636_STAGE TD9636_WIND TD9636_PRES TD9635_LAT TD9635_LON TD9635_WIND TD9635_PRES TD9635_ROCI NEUMANN_LAT NEUMANN_LON NEUMANN_CLASS NEUMANN_WIND NEUMANN_PRES MLC_LAT MLC_LON MLC_CLASS MLC_WIND MLC_PRES USA_GUST BOM_GUST BOM_GUST_PER REUNION_GUST REUNION_GUST_PER USA_SEAHGT USA_SEARAD_NE USA_SEARAD_SE USA_SEARAD_SW USA_SEARAD_NW STORM_SPEED STORM_DIR
2022230N16272 2022 48 NA CS NOT_NAMED 2022-08-17 18:00:00 NR 16.3000 -88.5000 PROVISIONAL 10 0 O_____________ nhc_working_bt AL042022 16.3000 -88.5000 DB 20 1010 -3 1012 120 60 6 312
2022230N16272 2022 48 NA NA NOT_NAMED 2022-08-17 21:00:00 NR 16.4975 -88.7250 PROVISIONAL 0 0 P_____________ AL042022 16.4975 -88.7250 DB 20 1010 -3 1012 120 60 6 310
2022230N16272 2022 48 NA NA NOT_NAMED 2022-08-18 00:00:00 NR 16.7000 -89.0000 PROVISIONAL 0 0 O_____________ nhc_working_bt AL042022 16.7000 -89.0000 DB 20 1010 -3 1012 120 60 7 304
2022230N16272 2022 48 NA NA NOT_NAMED 2022-08-18 03:00:00 NR 16.9076 -89.3499 PROVISIONAL 0 0 P_____________ AL042022 16.9076 -89.3499 DB 20 1010 -3 1012 120 60 8 301
2022230N16272 2022 48 NA NA NOT_NAMED 2022-08-18 06:00:00 NR 17.1000 -89.7000 PROVISIONAL 0 0 I_____________ nhc_working_bt AL042022 17.1000 -89.7000 DB 20 1010 -3 1012 120 60 7 301
2022230N16272 2022 48 NA NA NOT_NAMED 2022-08-18 09:00:00 NR 17.2574 -89.9651 PROVISIONAL 0 0 P_____________ AL042022 17.2574 -89.9651 DB 20 1010 -3 1012 120 60 6 302
2022230N16272 2022 48 NA NA NOT_NAMED 2022-08-18 12:00:00 NR 17.4000 -90.2000 PROVISIONAL 0 0 O_____________ nhc_working_bt AL042022 17.4000 -90.2000 DB 20 1010 -3 1012 120 60 6 300
2022230N16272 2022 48 NA NA NOT_NAMED 2022-08-18 15:00:00 NR 17.5350 -90.4650 PROVISIONAL 0 0 P_____________ AL042022 17.5350 -90.4650 DB 20 1010 -3 1012 120 60 6 302
2022230N16272 2022 48 NA NA NOT_NAMED 2022-08-18 18:00:00 NR 17.7000 -90.7000 PROVISIONAL 0 0 O_____________ nhc_working_bt AL042022 17.7000 -90.7000 DB 20 1010 -3 1012 120 60 5 317
2022230N16272 2022 48 NA NA NOT_NAMED 2022-08-18 21:00:00 NR 17.9049 -90.8353 PROVISIONAL 0 0 P_____________ AL042022 17.9049 -90.8353 DB 20 1009 -3 1012 120 70 6 330
2022230N16272 2022 48 NA NA NOT_NAMED 2022-08-19 00:00:00 NR 18.2000 -91.0000 PROVISIONAL 0 0 O_____________ nhc_working_bt AL042022 18.2000 -91.0000 DB 20 1009 -3 1012 120 80 9 330
2022230N16272 2022 48 NA GM NOT_NAMED 2022-08-19 03:00:00 NR 18.6499 -91.2898 PROVISIONAL 0 0 P_____________ AL042022 18.6499 -91.2898 DB 20 1009 -3 1012 120 80 11 324
2022230N16272 2022 48 NA GM NOT_NAMED 2022-08-19 06:00:00 NR 19.1000 -91.7000 PROVISIONAL 30 30 O_____________ nhc_working_bt AL042022 19.1000 -91.7000 DB 20 1009 -3 1012 120 80 11 309
2022230N16272 2022 48 NA GM NOT_NAMED 2022-08-19 09:00:00 NR 19.3575 -92.2131 PROVISIONAL 89 89 P_____________ AL042022 19.3575 -92.2131 DB 22 1009 -3 1012 120 80 12 296
2022230N16272 2022 48 NA GM NOT_NAMED 2022-08-19 12:00:00 NR 19.6000 -92.8000 PROVISIONAL 112 112 O_____________ nhc_working_bt AL042022 19.6000 -92.8000 DB 25 1009 -3 1012 120 80 13 298
2022230N16272 2022 48 NA GM NOT_NAMED 2022-08-19 15:00:00 NR 19.9701 -93.4149 PROVISIONAL 172 172 P_____________ AL042022 19.9701 -93.4149 DB 27 1009 -3 1012 120 80 14 305
2022230N16272 2022 48 NA GM NOT_NAMED 2022-08-19 18:00:00 NR 20.4000 -94.0000 PROVISIONAL 226 222 O_____________ nhc_working_bt AL042022 20.4000 -94.0000 DB 30 1009 -3 1012 120 80 35 13 311
2022230N16272 2022 48 NA GM NOT_NAMED 2022-08-19 21:00:00 NR 20.8458 -94.4911 PROVISIONAL 222 213 P_____________ AL042022 20.8423 -94.4952 DB 30 1009 -3 1012 120 80 12 317
2022230N16272 2022 48 NA GM NOT_NAMED 2022-08-20 00:00:00 NR 21.3000 -94.9000 PROVISIONAL 221 217 O_____________ nhc_working_bt AL042022 21.3000 -94.9000 DB 30 1009 -3 1012 120 80 40 11 323
2022230N16272 2022 48 NA GM NOT_NAMED 2022-08-20 03:00:00 NR 21.7451 -95.2109 PROVISIONAL 217 193 P_____________ AL042022 21.7498 -95.2229 DB 30 1009 -3 1012 120 80 11 328
2022230N16272 2022 48 NA GM NOT_NAMED 2022-08-20 06:00:00 NR 22.2000 -95.5000 PROVISIONAL 197 187 O_____________ nhc_working_bt AL042022 22.2000 -95.5000 DB 30 1010 -3 1012 120 80 40 11 328
2022230N16272 2022 48 NA GM NOT_NAMED 2022-08-20 09:00:00 NR 22.6761 -95.8349 PROVISIONAL 197 163 P_____________ AL042022 22.6423 -95.7780 DB 30 1010 -3 1012 120 80 12 326
2022230N16272 2022 48 NA GM NOT_NAMED 2022-08-20 12:00:00 NR 23.1527 -96.1896 PROVISIONAL 163 122 O_____________ nhc_working_bt AL042022 23.1000 -96.1000 DB 30 1010 -3 1012 120 80 40 12 324
2022230N16272 2022 48 NA GM NOT_NAMED 2022-08-20 15:00:00 NR 23.6345 -96.5887 PROVISIONAL 122 81 P_____________ AL042022 23.6152 -96.5496 DB 30 1010 -3 1012 120 80 12 322
2022230N16272 2022 48 NA GM NOT_NAMED 2022-08-20 18:00:00 NR 24.1000 -97.0000 PROVISIONAL 81 40 O_____________ nhc_working_bt AL042022 24.1000 -97.0000 DB 30 1010 -3 1012 120 80 40 11 321
2022230N16272 2022 48 NA GM NOT_NAMED 2022-08-20 21:00:00 NR 24.4824 -97.3377 PROVISIONAL 40 10 P_____________ AL042022 24.4824 -97.3377 DB 30 1010 -3 1011 120 80 9 322
2022230N16272 2022 48 NA GM NOT_NAMED 2022-08-21 00:00:00 NR 24.8000 -97.6000 PROVISIONAL 10 O_____________ nhc_working_bt AL042022 24.8000 -97.6000 DB 30 1010 -3 1011 120 80 40 8 323

About IBTrACS Database

This database is a web-friendly format of International Best Track Archive for Climate Stewardship (IBTrACS), a global best track data archive curated by NOAA dating back to 1842.

Updated: 2022-09-30